Startpagina
METAR-TAF:

METAR-TAF

Vliegvelden :

Lelystad Airport

Lelystad, Nederland

breedte: 52-27-37N, lengte: 005-31-38E, hoogte: -4 m

Actueel weer

Dit bericht is 38 minuten geleden gemaakt, om 04:55 UTC
Wind 3 kt uit het westzuidwesten
Temperatuur -3°C
Vochtigheid 100%
Druk 1027 hPa
Zicht 10 km of meer
Weinig wolken op 3100 ft
Geheel bewolkt op 3600 ft

METAR: EHLE 070455Z AUTO 24003KT 9999 FEW031 OVC036 M03/M03 Q1027

Tijdstip: 06:33 (05:33 UTC)

Verwachting

Dit bericht is 6 uur en het 19 minuten geleden gemaakt, om 23:14 UTC
Verwachting geldig van 07 om 00 UTC tot 08 om 06 UTC
Wind 6 kt uit het westnoordwesten
Zicht 10 km of meer
Verspreide wolken op 4000 ft
Kans 40% :
Tijdelijke
van 07 om 00 UTC tot 07 om 08 UTC
Zicht: 0600 m
mistbanken, onderkoelde mist

TAF: EHLE 062314Z 0700/0806 29006KT 9999 SCT040 PROB40 TEMPO 0700/0708 0600 BCFG FZFG

Waarnemingen en weersverwachtingen van meer dan 4000 vliegvelden (METAR en TAF).

De beschikbare stations zijn de gele en rode punten op de kaart.

Ga met uw muis naar het station om de naam te zien.

Klik dan om waarnemingen en weersverwachtingen te zien.

kaart wijzigen: klik op de groene knoppen met een zwart kruis om in te zoomen, op de groene knop met een streepje om uit te zoomen of op de groene pijlen voor aangrenzende kaarten.


METAR-TAF: